Time;durP1;ratioP1;P1;durP2;ratioP2;P2;SDS_P1;SDS_P2;PMS_P1;PMS_P2;Temp;Humidity;BMP_temperature;BMP_pressure;BME280_temperature;BME280_humidity;BME280_pressure;Samples;Min_cycle;Max_cycle;Signal;HPM_P1;HPM_P2
2022/06/13 00:01:57;;;;;;;11.90;7.18;;;13.40;99.90;;;;;;5019038;28;20033;-71
2022/06/13 00:04:23;;;;;;;11.75;6.80;;;13.50;99.90;;;;;;5008381;28;20065;-71
2022/06/13 00:06:49;;;;;;;13.40;7.18;;;13.50;99.90;;;;;;4986436;28;20080;-71
2022/06/13 00:09:15;;;;;;;11.02;6.57;;;13.50;99.90;;;;;;5001967;28;20085;-71
2022/06/13 00:11:41;;;;;;;15.77;6.30;;;13.50;99.90;;;;;;4990689;28;20462;-71
2022/06/13 00:14:07;;;;;;;12.85;7.10;;;13.50;99.90;;;;;;4992215;28;20045;-71
2022/06/13 00:16:33;;;;;;;11.70;7.53;;;13.40;99.90;;;;;;4999421;28;20042;-71
2022/06/13 00:18:59;;;;;;;13.75;8.05;;;13.40;99.90;;;;;;5003542;28;20049;-71
2022/06/13 00:21:31;;;;;;;14.73;8.18;;;13.40;99.90;;;;;;5005000;28;20170;-71
2022/06/13 00:23:58;;;;;;;13.60;7.95;;;13.30;99.90;;;;;;5043790;28;20319;-71
2022/06/13 00:26:26;;;;;;;17.92;7.85;;;13.30;99.90;;;;;;5018128;28;20053;-71
2022/06/13 00:28:53;;;;;;;10.50;6.13;;;13.30;99.90;;;;;;4987096;28;20042;-72
2022/06/13 00:31:19;;;;;;;13.85;6.22;;;13.30;99.90;;;;;;4988388;28;20037;-72
2022/06/13 00:33:45;;;;;;;11.63;6.30;;;13.30;99.90;;;;;;4987785;28;20337;-72
2022/06/13 00:36:12;;;;;;;10.82;6.03;;;13.30;99.90;;;;;;5023494;28;20112;-72
2022/06/13 00:38:38;;;;;;;13.15;6.68;;;13.30;99.90;;;;;;5020804;28;20049;-73
2022/06/13 00:41:10;;;;;;;15.55;7.13;;;13.30;99.90;;;;;;5003452;28;20516;-73
2022/06/13 00:43:38;;;;;;;12.52;6.47;;;13.30;99.90;;;;;;4995881;28;20049;-72
2022/06/13 00:46:16;;;;;;;12.80;6.88;;;13.30;99.90;;;;;;5004562;28;20421;-73
2022/06/13 00:48:42;;;;;;;12.50;6.82;;;13.30;99.90;;;;;;5002183;28;20088;-72
2022/06/13 00:51:09;;;;;;;11.95;6.05;;;13.30;99.90;;;;;;5011089;28;20120;-72
2022/06/13 00:53:36;;;;;;;10.32;6.35;;;13.30;99.90;;;;;;5021250;28;20455;-73
2022/06/13 00:56:09;;;;;;;13.43;6.70;;;13.30;99.90;;;;;;4988807;28;20493;-72
2022/06/13 00:58:40;;;;;;;12.90;7.28;;;13.30;99.90;;;;;;5004315;28;20049;-72
2022/06/13 01:01:06;;;;;;;15.70;7.15;;;13.30;99.90;;;;;;5011324;28;20048;-72
2022/06/13 01:03:33;;;;;;;10.90;7.13;;;13.30;99.90;;;;;;5006101;28;20046;-73
2022/06/13 01:06:02;;;;;;;15.32;7.68;;;13.30;99.90;;;;;;5016536;28;20050;-73
2022/06/13 01:08:32;;;;;;;16.20;7.93;;;13.30;99.90;;;;;;4998874;28;20123;-73
2022/06/13 01:11:17;;;;;;;15.25;8.13;;;13.20;99.90;;;;;;5005025;28;20042;-74
2022/06/13 01:14:07;;;;;;;12.80;6.97;;;13.20;99.90;;;;;;5000043;28;20046;-73
2022/06/13 01:16:46;;;;;;;15.50;8.40;;;13.20;99.90;;;;;;4990849;28;20044;-73
2022/06/13 01:19:44;;;;;;;14.70;8.32;;;13.10;99.90;;;;;;5017791;28;20069;-74
2022/06/13 01:22:30;;;;;;;13.00;7.53;;;13.10;99.90;;;;;;4999360;28;20420;-73
2022/06/13 01:25:22;;;;;;;12.52;6.88;;;13.00;99.90;;;;;;5002505;28;20060;-72
2022/06/13 01:27:54;;;;;;;15.32;8.73;;;13.00;99.90;;;;;;5007302;28;20045;-71
2022/06/13 01:30:26;;;;;;;13.27;8.60;;;13.00;99.90;;;;;;5003440;28;20068;-72
2022/06/13 01:33:05;;;;;;;16.83;8.70;;;13.00;99.90;;;;;;5016466;28;20054;-72
2022/06/13 01:35:42;;;;;;;17.75;7.65;;;12.90;99.90;;;;;;4986912;28;20054;-72
2022/06/13 01:38:19;;;;;;;15.07;7.75;;;12.90;99.90;;;;;;5025466;28;20613;-72
2022/06/13 01:41:15;;;;;;;12.95;8.00;;;13.00;99.90;;;;;;5028602;28;20057;-72
2022/06/13 01:44:12;;;;;;;19.83;8.27;;;13.00;99.90;;;;;;5002121;28;20501;-71
2022/06/13 01:46:56;;;;;;;15.15;7.25;;;13.00;99.90;;;;;;5028639;28;20104;-72
2022/06/13 01:49:46;;;;;;;15.32;8.85;;;12.90;99.90;;;;;;5009020;28;20047;-73
2022/06/13 01:52:19;;;;;;;14.65;7.43;;;12.90;99.90;;;;;;5013789;28;20097;-72
2022/06/13 01:55:17;;;;;;;16.60;7.82;;;12.90;99.90;;;;;;5003155;28;20054;-72
2022/06/13 01:57:49;;;;;;;12.20;7.35;;;12.90;99.90;;;;;;5016597;28;20089;-72
2022/06/13 02:00:19;;;;;;;13.05;7.57;;;12.90;99.90;;;;;;5031827;28;20057;-72
2022/06/13 02:03:17;;;;;;;12.45;8.23;;;12.90;99.90;;;;;;4983847;28;20077;-72
2022/06/13 02:05:47;;;;;;;14.32;8.73;;;12.90;99.90;;;;;;5001337;28;20046;-72
2022/06/13 02:08:33;;;;;;;16.00;8.87;;;12.90;99.90;;;;;;4986863;28;20046;-72
2022/06/13 02:11:36;;;;;;;13.07;7.38;;;12.90;99.90;;;;;;5002954;28;20048;-72
2022/06/13 02:14:14;;;;;;;13.15;8.10;;;12.80;99.90;;;;;;5007703;28;20102;-72
2022/06/13 02:16:45;;;;;;;16.40;8.88;;;12.90;99.90;;;;;;5002833;28;20073;-72
2022/06/13 02:19:28;;;;;;;12.35;8.32;;;12.90;99.90;;;;;;4985912;28;20046;-71
2022/06/13 02:22:08;;;;;;;13.40;8.30;;;12.90;99.90;;;;;;5034776;28;20049;-72
2022/06/13 02:24:38;;;;;;;13.35;8.18;;;12.80;99.90;;;;;;4973327;28;20057;-72
2022/06/13 02:27:06;;;;;;;16.75;9.55;;;12.80;99.90;;;;;;5004041;28;20050;-72
2022/06/13 02:29:47;;;;;;;10.98;7.93;;;12.80;99.90;;;;;;4995967;28;20101;-72
2022/06/13 02:32:16;;;;;;;;;;;12.80;99.90;;;;;;4996352;28;20137;-72
2022/06/13 02:34:51;;;;;;;12.38;8.57;;;12.70;99.90;;;;;;5000689;28;19921;-72
2022/06/13 02:37:26;;;;;;;14.10;9.18;;;12.70;99.90;;;;;;4999673;28;20034;-71
2022/06/13 02:40:05;;;;;;;15.77;8.65;;;12.60;99.90;;;;;;4998371;28;20053;-70
2022/06/13 02:42:45;;;;;;;18.38;9.60;;;12.70;99.90;;;;;;5000496;28;20554;-70
2022/06/13 02:45:18;;;;;;;18.30;11.13;;;12.70;99.90;;;;;;4992941;28;20525;-71
2022/06/13 02:47:55;;;;;;;17.30;9.95;;;12.60;99.90;;;;;;5001053;28;20426;-71
2022/06/13 02:50:36;;;;;;;15.63;10.02;;;12.60;99.90;;;;;;5036042;28;20056;-70
2022/06/13 02:53:12;;;;;;;16.60;9.27;;;12.60;99.90;;;;;;4984733;28;20044;-70
2022/06/13 02:55:45;;;;;;;16.27;9.43;;;12.70;99.90;;;;;;5034325;28;20121;-70
2022/06/13 02:58:29;;;;;;;15.35;9.18;;;12.70;99.90;;;;;;5031010;28;20516;-70
2022/06/13 03:01:01;;;;;;;15.88;9.68;;;12.70;99.90;;;;;;4987022;28;20110;-71
2022/06/13 03:04:05;;;;;;;17.52;10.27;;;12.80;99.90;;;;;;5002821;28;20046;-71
2022/06/13 03:06:58;;;;;;;19.05;11.05;;;12.80;99.90;;;;;;5000282;28;20109;-70
2022/06/13 03:09:38;;;;;;;17.23;10.18;;;12.80;99.90;;;;;;5017461;28;20042;-70
2022/06/13 03:12:14;;;;;;;17.20;10.10;;;12.90;99.90;;;;;;5014507;28;20421;-70
2022/06/13 03:14:59;;;;;;;17.52;9.82;;;12.90;99.90;;;;;;5016091;28;20471;-70
2022/06/13 03:17:44;;;;;;;16.52;10.63;;;12.90;99.90;;;;;;5009574;28;20040;-70
2022/06/13 03:20:42;;;;;;;16.35;10.25;;;13.00;99.90;;;;;;5013521;28;20054;-70
2022/06/13 03:23:22;;;;;;;19.30;11.05;;;13.00;99.90;;;;;;5014542;28;20045;-70
2022/06/13 03:25:59;;;;;;;19.58;10.88;;;13.00;99.90;;;;;;4998705;28;20115;-70
2022/06/13 03:28:36;;;;;;;15.88;10.57;;;13.00;99.90;;;;;;5000825;28;20045;-70
2022/06/13 03:31:18;;;;;;;18.17;11.38;;;13.00;99.90;;;;;;5029099;28;20049;-70
2022/06/13 03:33:47;;;;;;;19.00;10.57;;;13.10;99.90;;;;;;5001570;28;20064;-70
2022/06/13 03:36:34;;;;;;;16.48;10.65;;;13.10;99.90;;;;;;5042863;28;20057;-70
2022/06/13 03:39:15;;;;;;;14.13;10.02;;;13.10;99.90;;;;;;4996771;28;20535;-70
2022/06/13 03:42:06;;;;;;;20.30;11.88;;;13.10;99.90;;;;;;5019038;28;20413;-70
2022/06/13 03:44:42;;;;;;;19.85;11.68;;;13.20;99.90;;;;;;4983592;28;20422;-71
2022/06/13 03:47:35;;;;;;;18.90;12.60;;;13.20;99.90;;;;;;4985366;28;20124;-70
2022/06/13 03:50:25;;;;;;;20.17;11.45;;;13.20;99.90;;;;;;5033351;28;20561;-70
2022/06/13 03:53:00;;;;;;;17.52;10.95;;;13.20;99.90;;;;;;5000668;28;20515;-71
2022/06/13 03:55:41;;;;;;;17.83;10.85;;;13.20;99.90;;;;;;5002903;28;20042;-71
2022/06/13 03:58:17;;;;;;;20.88;11.50;;;13.20;99.90;;;;;;4998785;28;20050;-70
2022/06/13 04:01:17;;;;;;;19.70;9.70;;;13.30;99.90;;;;;;4998875;28;20053;-70
2022/06/13 04:03:46;;;;;;;18.10;10.07;;;13.30;99.90;;;;;;4981936;28;20400;-70
2022/06/13 04:06:36;;;;;;;13.55;8.93;;;13.30;99.90;;;;;;5005174;28;20048;-70
2022/06/13 04:09:10;;;;;;;17.90;8.50;;;13.30;99.90;;;;;;5001396;28;20045;-70
2022/06/13 04:12:01;;;;;;;14.73;7.57;;;13.30;99.90;;;;;;4976144;28;20823;-70
2022/06/13 04:15:06;;;;;;;15.00;7.90;;;13.40;99.90;;;;;;5002440;28;20077;-71
2022/06/13 04:18:05;;;;;;;12.50;6.82;;;13.30;99.90;;;;;;4986892;28;20053;-70
2022/06/13 04:21:10;;;;;;;14.32;5.45;;;13.40;99.90;;;;;;4997283;28;20042;-71
2022/06/13 04:23:47;;;;;;;12.90;6.22;;;13.40;99.90;;;;;;4991314;28;20058;-70
2022/06/13 04:26:45;;;;;;;10.60;5.50;;;13.40;99.90;;;;;;4992785;28;20050;-70
2022/06/13 04:29:33;;;;;;;14.05;6.20;;;13.50;99.90;;;;;;4981111;28;20120;-70
2022/06/13 04:32:04;;;;;;;11.88;5.50;;;13.50;99.90;;;;;;5027340;28;21076;-70
2022/06/13 04:34:38;;;;;;;12.15;5.38;;;13.60;99.90;;;;;;5002441;28;20047;-70
2022/06/13 04:37:04;;;;;;;11.98;5.45;;;13.60;99.90;;;;;;5019641;28;20219;-70
2022/06/13 04:39:33;;;;;;;12.23;5.97;;;13.70;99.90;;;;;;4983154;28;20053;-70
2022/06/13 04:42:01;;;;;;;10.35;5.15;;;13.70;99.90;;;;;;4993353;28;20136;-71
2022/06/13 04:44:30;;;;;;;10.65;4.80;;;13.80;99.90;;;;;;5004968;28;20104;-70
2022/06/13 04:46:57;;;;;;;10.05;5.00;;;13.80;99.90;;;;;;5004602;28;20501;-70
2022/06/13 04:49:43;;;;;;;10.73;4.60;;;13.90;99.90;;;;;;5006665;28;20050;-71
2022/06/13 04:52:14;;;;;;;11.77;4.88;;;14.00;99.90;;;;;;5015253;28;20053;-71
2022/06/13 04:54:47;;;;;;;9.30;4.53;;;14.00;99.90;;;;;;4994313;28;20065;-71
2022/06/13 04:57:15;;;;;;;9.88;4.50;;;14.10;99.90;;;;;;5003043;28;20497;-71
2022/06/13 04:59:42;;;;;;;11.32;4.82;;;14.10;99.90;;;;;;5002200;28;20060;-71
2022/06/13 05:02:15;;;;;;;9.38;4.55;;;14.20;99.90;;;;;;5032434;28;20596;-71
2022/06/13 05:04:41;;;;;;;11.38;4.20;;;14.20;99.90;;;;;;5016391;28;20065;-71
2022/06/13 05:07:14;;;;;;;10.13;4.60;;;14.20;99.90;;;;;;5004524;28;20481;-70
2022/06/13 05:10:02;;;;;;;9.32;3.90;;;14.30;99.90;;;;;;4987579;28;20041;-71
2022/06/13 05:12:41;;;;;;;7.85;3.92;;;14.20;99.90;;;;;;4985870;28;20584;-71
2022/06/13 05:15:21;;;;;;;9.65;3.90;;;14.30;99.90;;;;;;5027720;28;20136;-71
2022/06/13 05:18:05;;;;;;;8.23;3.57;;;14.30;99.90;;;;;;5024425;28;20108;-71
2022/06/13 05:21:06;;;;;;;8.98;4.03;;;14.30;99.90;;;;;;5010375;28;20184;-70
2022/06/13 05:23:51;;;;;;;9.25;3.45;;;14.30;99.90;;;;;;5004317;28;20052;-71
2022/06/13 05:26:17;;;;;;;8.25;3.70;;;14.30;99.90;;;;;;5020195;28;20041;-71
2022/06/13 05:28:45;;;;;;;9.20;3.70;;;14.40;99.90;;;;;;5007050;28;20045;-71
2022/06/13 05:31:18;;;;;;;6.88;3.38;;;14.40;99.90;;;;;;5000023;28;20038;-71
2022/06/13 05:33:46;;;;;;;8.95;4.00;;;14.40;99.90;;;;;;4983154;28;20485;-71
2022/06/13 05:36:16;;;;;;;8.55;3.83;;;14.50;99.90;;;;;;5006238;28;20054;-71
2022/06/13 05:39:01;;;;;;;7.95;3.63;;;14.50;99.90;;;;;;5004686;28;20523;-71
2022/06/13 05:41:27;;;;;;;8.55;3.70;;;14.60;99.90;;;;;;5033286;28;20061;-71
2022/06/13 05:43:53;;;;;;;13.60;4.25;;;14.60;99.90;;;;;;4984772;28;20046;-71
2022/06/13 05:46:32;;;;;;;8.18;4.38;;;14.70;99.90;;;;;;4997510;28;20041;-71
2022/06/13 05:48:59;;;;;;;10.60;4.60;;;14.80;99.90;;;;;;4979658;28;20084;-70
2022/06/13 05:51:28;;;;;;;10.68;4.25;;;14.90;99.90;;;;;;5000780;28;20053;-71
2022/06/13 05:53:56;;;;;;;9.35;3.47;;;15.00;99.90;;;;;;4986792;28;20254;-70
2022/06/13 05:56:24;;;;;;;9.70;3.75;;;15.00;99.90;;;;;;4993760;28;20054;-70
2022/06/13 05:58:50;;;;;;;8.52;3.88;;;14.90;99.90;;;;;;5012151;28;20457;-70
2022/06/13 06:01:16;;;;;;;7.22;3.55;;;14.80;99.90;;;;;;4990480;28;20263;-70
2022/06/13 06:03:44;;;;;;;8.98;3.65;;;14.70;99.90;;;;;;4966757;28;20041;-70
2022/06/13 06:06:19;;;;;;;9.73;3.65;;;14.70;99.90;;;;;;5014136;28;20054;-71
2022/06/13 06:08:45;;;;;;;10.85;4.22;;;14.80;99.90;;;;;;5034664;28;20050;-71
2022/06/13 06:11:11;;;;;;;7.60;2.90;;;14.90;99.90;;;;;;5002272;28;20270;-71
2022/06/13 06:13:37;;;;;;;7.35;2.67;;;15.00;99.90;;;;;;4998238;28;20145;-70
2022/06/13 06:16:03;;;;;;;9.65;2.95;;;15.10;99.90;;;;;;4986969;28;20128;-71
2022/06/13 06:18:30;;;;;;;9.98;3.25;;;15.10;99.90;;;;;;5000272;28;20045;-70
2022/06/13 06:20:56;;;;;;;6.53;2.83;;;15.20;99.90;;;;;;4997364;28;20047;-70
2022/06/13 06:23:22;;;;;;;6.53;2.60;;;15.20;99.90;;;;;;5003448;28;20045;-70
2022/06/13 06:25:48;;;;;;;9.38;2.72;;;15.20;99.90;;;;;;4982033;28;20042;-70
2022/06/13 06:28:22;;;;;;;7.32;2.83;;;15.20;99.90;;;;;;4997281;28;20122;-70
2022/06/13 06:30:50;;;;;;;9.90;2.80;;;15.30;99.90;;;;;;4998262;28;20046;-71
2022/06/13 06:33:16;;;;;;;6.25;2.53;;;15.30;99.90;;;;;;5005428;28;20044;-71
2022/06/13 06:35:41;;;;;;;10.45;3.05;;;15.30;99.90;;;;;;4999692;28;20046;-71
2022/06/13 06:38:07;;;;;;;8.20;2.67;;;15.30;99.90;;;;;;5005563;28;20512;-70
2022/06/13 06:40:33;;;;;;;7.90;2.20;;;15.30;99.90;;;;;;5034305;28;20410;-71
2022/06/13 06:42:59;;;;;;;7.72;2.40;;;15.20;99.90;;;;;;5029529;28;20046;-72
2022/06/13 06:45:26;;;;;;;7.80;2.75;;;15.20;99.90;;;;;;4984129;28;20042;-71
2022/06/13 06:47:53;;;;;;;7.45;2.38;;;15.20;99.90;;;;;;5000844;28;20104;-71
2022/06/13 06:50:32;;;;;;;8.75;2.55;;;15.10;99.90;;;;;;5017891;28;20409;-72
2022/06/13 06:52:58;;;;;;;6.38;2.35;;;15.10;99.90;;;;;;4984524;28;20056;-73
2022/06/13 07:00:59;;;;;;;4.03;1.15;;;14.50;99.90;;;;;;4986851;28;20047;-73
2022/06/13 07:03:25;;;;;;;3.28;1.20;;;14.20;99.90;;;;;;4987390;28;20104;-72
2022/06/13 07:05:51;;;;;;;2.88;0.77;;;14.00;99.90;;;;;;5030868;28;20042;-72
2022/06/13 07:08:17;;;;;;;3.53;1.33;;;14.00;99.90;;;;;;5000717;28;20495;-72
2022/06/13 07:10:49;;;;;;;3.03;0.80;;;14.00;99.90;;;;;;4987619;28;20174;-73
2022/06/13 07:13:16;;;;;;;3.28;0.60;;;14.00;99.90;;;;;;5032798;28;20075;-73
2022/06/13 07:15:42;;;;;;;3.72;0.90;;;14.00;99.90;;;;;;4996161;28;20046;-72
2022/06/13 07:18:08;;;;;;;2.63;0.80;;;14.00;99.90;;;;;;4987971;28;20048;-72
2022/06/13 07:20:35;;;;;;;2.08;0.65;;;14.00;99.90;;;;;;5004060;28;20037;-72
2022/06/13 07:23:02;;;;;;;1.58;0.63;;;14.10;99.90;;;;;;4996124;28;20053;-72
2022/06/13 07:25:30;;;;;;;3.38;1.35;;;14.20;99.90;;;;;;5014499;28;20061;-72
2022/06/13 07:27:57;;;;;;;3.90;1.13;;;14.50;99.90;;;;;;4997861;28;20121;-72
2022/06/13 07:30:26;;;;;;;5.95;1.42;;;14.70;99.90;;;;;;5000233;28;20048;-71
2022/06/13 07:32:54;;;;;;;5.07;1.30;;;14.90;99.90;;;;;;4983448;28;20093;-71
2022/06/13 07:35:22;;;;;;;4.97;1.75;;;15.10;99.90;;;;;;5004107;28;20505;-72
2022/06/13 07:40:32;;;;;;;6.13;1.95;;;15.60;99.90;;;;;;4984369;28;20133;-70
2022/06/13 07:43:03;;;;;;;5.25;1.50;;;15.80;99.90;;;;;;4987303;28;20448;-71
2022/06/13 07:45:33;;;;;;;4.90;1.75;;;16.10;99.90;;;;;;4984461;28;20077;-71
2022/06/13 07:47:59;;;;;;;7.03;1.92;;;16.50;99.90;;;;;;5009372;28;20053;-71
2022/06/13 07:50:27;;;;;;;5.80;1.48;;;16.70;99.90;;;;;;4985644;28;20042;-71
2022/06/13 07:52:53;;;;;;;7.75;2.65;;;17.00;99.90;;;;;;4999049;28;20619;-71
2022/06/13 07:55:20;;;;;;;6.97;1.80;;;17.00;99.90;;;;;;5006763;28;20105;-71
2022/06/13 07:57:46;;;;;;;12.43;2.42;;;16.80;99.90;;;;;;4989655;28;20041;-71
2022/06/13 08:00:22;;;;;;;9.30;2.20;;;16.70;99.90;;;;;;4988142;28;20092;-72
2022/06/13 08:02:49;;;;;;;8.15;1.67;;;16.40;99.90;;;;;;5004014;28;20064;-72
2022/06/13 08:05:15;;;;;;;5.65;1.90;;;16.10;99.90;;;;;;4999116;28;20045;-71
2022/06/13 08:07:41;;;;;;;4.43;1.50;;;15.90;99.90;;;;;;5000059;28;20516;-73
2022/06/13 08:10:07;;;;;;;6.57;2.00;;;15.70;99.90;;;;;;5017534;28;20084;-72
2022/06/13 08:12:33;;;;;;;5.63;1.95;;;15.80;99.90;;;;;;5017642;28;20380;-72
2022/06/13 08:14:59;;;;;;;6.10;1.70;;;16.00;99.90;;;;;;4996272;28;20045;-73
2022/06/13 08:17:25;;;;;;;4.97;2.00;;;16.30;99.90;;;;;;4985965;28;20034;-71
2022/06/13 08:19:54;;;;;;;5.57;2.15;;;16.60;99.90;;;;;;5001588;28;20046;-72
2022/06/13 08:22:20;;;;;;;6.15;1.85;;;16.90;99.90;;;;;;5016684;28;20043;-73
2022/06/13 08:24:45;;;;;;;6.72;2.10;;;16.90;99.90;;;;;;5004018;28;20046;-72
2022/06/13 08:27:11;;;;;;;7.22;1.85;;;16.70;99.90;;;;;;5003644;28;20492;-73
2022/06/13 08:29:37;;;;;;;6.63;1.77;;;16.50;99.90;;;;;;4989408;28;20096;-72
2022/06/13 08:32:04;;;;;;;6.70;2.03;;;16.20;99.90;;;;;;4982858;28;20254;-72
2022/06/13 08:34:30;;;;;;;6.22;1.60;;;15.90;99.90;;;;;;4988861;28;20076;-73
2022/06/13 08:36:56;;;;;;;6.82;1.70;;;16.00;99.90;;;;;;4979643;28;20575;-73
2022/06/13 08:39:23;;;;;;;7.68;1.80;;;16.20;99.90;;;;;;4999824;28;20066;-73
2022/06/13 08:41:59;;;;;;;6.40;1.50;;;16.50;99.90;;;;;;4994058;28;20341;-73
2022/06/13 08:44:37;;;;;;;9.70;2.15;;;16.80;99.90;;;;;;5003516;28;20046;-72
2022/06/13 08:47:15;;;;;;;5.88;1.40;;;17.10;99.90;;;;;;4984175;28;20136;-72
2022/06/13 08:49:41;;;;;;;6.97;1.25;;;17.30;99.90;;;;;;4991312;28;20046;-70
2022/06/13 08:52:24;;;;;;;4.80;1.15;;;17.30;99.90;;;;;;5019647;28;20056;-71
2022/06/13 08:55:27;;;;;;;6.25;1.70;;;17.40;99.90;;;;;;5015513;28;20582;-74
2022/06/13 08:58:10;;;;;;;6.90;1.42;;;17.60;99.90;;;;;;4986150;28;20183;-71
2022/06/13 09:00:38;;;;;;;5.50;1.20;;;17.80;99.90;;;;;;5006015;28;20605;-71
2022/06/13 09:03:11;;;;;;;9.60;1.48;;;17.90;99.90;;;;;;5002080;28;20268;-71
2022/06/13 09:05:50;;;;;;;4.95;1.13;;;17.90;99.90;;;;;;5032461;28;20528;-71
2022/06/13 09:08:22;;;;;;;3.88;1.13;;;18.00;99.90;;;;;;5000966;28;20052;-71
2022/06/13 09:10:59;;;;;;;3.28;1.20;;;18.10;99.90;;;;;;5002306;28;20046;-72
2022/06/13 09:13:41;;;;;;;4.35;0.80;;;18.30;99.90;;;;;;5000449;28;20049;-72
2022/06/13 09:16:12;;;;;;;8.65;1.02;;;18.00;99.90;;;;;;5039719;28;20072;-72
2022/06/13 09:18:57;;;;;;;3.08;1.00;;;17.70;99.90;;;;;;5021950;28;20132;-72
2022/06/13 09:21:51;;;;;;;4.25;1.00;;;17.30;99.90;;;;;;4982572;28;20050;-72
2022/06/13 09:24:27;;;;;;;6.22;1.05;;;17.30;99.90;;;;;;5031959;28;20097;-72
2022/06/13 09:27:17;;;;;;;4.00;1.02;;;17.50;99.90;;;;;;4993426;28;20527;-73
2022/06/13 09:30:05;;;;;;;4.43;1.35;;;17.90;99.90;;;;;;5004229;28;20050;-73
2022/06/13 09:32:50;;;;;;;3.95;0.93;;;18.20;99.90;;;;;;5000586;28;20085;-73
2022/06/13 09:35:47;;;;;;;5.50;1.00;;;18.50;99.90;;;;;;4981366;28;20053;-72
2022/06/13 09:38:22;;;;;;;4.65;1.10;;;18.60;99.90;;;;;;4997582;28;20506;-71
2022/06/13 09:40:58;;;;;;;3.55;0.73;;;18.60;99.90;;;;;;4995940;28;20111;-72
2022/06/13 09:43:35;;;;;;;4.88;1.15;;;18.50;99.90;;;;;;4998831;28;20144;-71
2022/06/13 09:46:27;;;;;;;8.00;1.25;;;18.40;99.90;;;;;;5020477;28;20144;-71
2022/06/13 09:49:10;;;;;;;6.65;1.00;;;18.20;99.90;;;;;;5030509;28;20046;-71
2022/06/13 09:52:04;;;;;;;6.53;1.27;;;18.10;99.90;;;;;;4984422;28;20536;-71
2022/06/13 09:54:45;;;;;;;5.93;1.30;;;17.90;99.90;;;;;;5000251;28;20054;-73
2022/06/13 09:57:28;;;;;;;6.57;1.55;;;17.90;99.90;;;;;;5030897;28;20082;-72
2022/06/13 10:00:11;;;;;;;5.82;1.27;;;18.20;99.90;;;;;;5004092;28;20045;-72
2022/06/13 10:03:01;;;;;;;5.82;1.15;;;18.60;99.90;;;;;;4998427;28;20529;-72
2022/06/13 10:05:33;;;;;;;5.25;0.98;;;19.00;99.90;;;;;;5014754;28;20105;-72
2022/06/13 10:08:14;;;;;;;5.10;1.50;;;19.00;99.90;;;;;;4980646;28;20049;-72
2022/06/13 10:11:03;;;;;;;5.22;1.33;;;19.00;99.90;;;;;;4981493;28;20085;-72
2022/06/13 10:13:49;;;;;;;5.63;1.20;;;18.90;99.90;;;;;;4988708;28;20044;-72
2022/06/13 10:16:30;;;;;;;5.43;1.20;;;18.90;99.90;;;;;;5029736;28;20041;-71
2022/06/13 10:18:58;;;;;;;6.03;1.15;;;18.90;99.90;;;;;;4992980;28;20890;-72
2022/06/13 10:21:51;;;;;;;5.75;1.45;;;19.00;99.90;;;;;;4996866;28;20042;-72
2022/06/13 10:24:23;;;;;;;6.35;1.77;;;19.20;99.90;;;;;;5018054;28;20519;-72
2022/06/13 10:26:56;;;;;;;6.32;1.10;;;19.40;99.90;;;;;;5004767;28;20058;-71
2022/06/13 10:29:41;;;;;;;8.70;1.40;;;19.60;99.90;;;;;;4978305;28;20050;-71
2022/06/13 10:32:38;;;;;;;4.93;1.30;;;19.90;99.90;;;;;;4990437;28;20047;-71
2022/06/13 10:35:31;;;;;;;6.35;1.17;;;19.90;99.90;;;;;;4996372;28;20450;-72
2022/06/13 10:38:06;;;;;;;6.15;1.33;;;19.50;97.60;;;;;;4993928;28;20120;-70
2022/06/13 10:40:32;;;;;;;7.03;1.80;;;19.10;95.90;;;;;;4994343;28;20104;-71
2022/06/13 10:42:59;;;;;;;7.63;1.73;;;18.50;97.50;;;;;;5024518;28;20037;-73
2022/06/13 10:45:25;;;;;;;5.35;1.35;;;18.00;99.90;;;;;;5002398;28;20042;-73
2022/06/13 10:48:39;;;;;;;5.50;1.88;;;17.50;99.90;;;;;;5012814;28;20054;-73
2022/06/13 10:51:05;;;;;;;4.63;1.20;;;16.90;99.90;;;;;;5033131;28;20411;-71
2022/06/13 10:53:38;;;;;;;5.63;1.40;;;16.50;99.90;;;;;;4974011;28;20065;-73
2022/06/13 10:56:08;;;;;;;5.88;1.42;;;16.20;99.90;;;;;;5003619;28;20464;-72
2022/06/13 10:58:38;;;;;;;;;;;16.00;99.90;;;;;;4994465;28;20615;-72
2022/06/13 11:01:14;;;;;;;6.13;1.60;;;15.90;99.90;;;;;;5013835;28;19925;-72
2022/06/13 11:04:01;;;;;;;7.75;2.08;;;15.90;99.90;;;;;;5030712;28;20184;-73
2022/06/13 11:06:38;;;;;;;6.50;1.85;;;16.10;99.90;;;;;;5033538;28;20057;-72
2022/06/13 11:09:18;;;;;;;6.80;1.75;;;16.40;99.90;;;;;;4985531;28;20046;-73
2022/06/13 11:11:44;;;;;;;6.47;1.90;;;16.60;99.90;;;;;;4990994;28;20584;-72
2022/06/13 11:22:37;;;;;;;9.30;2.33;;;16.70;99.90;;;;;;5004199;28;20042;-73
2022/06/13 11:23:01;;;;;;;4.78;1.23;;;17.20;99.90;;;;;;5026315;28;20047;-73
2022/06/13 11:25:33;;;;;;;4.05;0.90;;;17.50;99.90;;;;;;4970325;28;20067;-71
2022/06/13 11:28:11;;;;;;;3.72;1.08;;;17.70;99.90;;;;;;4985649;28;20125;-72
2022/06/13 11:30:42;;;;;;;3.83;0.82;;;17.70;99.90;;;;;;5000641;28;20500;-72
2022/06/13 11:33:10;;;;;;;;;;;17.60;99.90;;;;;;4983209;28;20573;-72
2022/06/13 11:35:50;;;;;;;5.85;1.25;;;17.40;99.90;;;;;;5024919;28;20387;-72
2022/06/13 11:38:34;;;;;;;6.30;1.33;;;17.30;99.90;;;;;;4998149;28;20048;-72
2022/06/13 11:41:11;;;;;;;6.43;1.67;;;17.20;99.90;;;;;;5007152;28;20412;-72
2022/06/13 11:43:48;;;;;;;5.65;1.48;;;17.30;99.90;;;;;;4984721;28;20049;-72
2022/06/13 11:46:30;;;;;;;6.78;1.85;;;17.60;99.90;;;;;;4984967;28;20104;-71
2022/06/13 11:49:15;;;;;;;7.10;1.75;;;18.00;99.90;;;;;;4979752;28;20113;-71
2022/06/13 11:51:54;;;;;;;8.05;1.73;;;18.10;99.90;;;;;;4996641;28;20141;-72
2022/06/13 11:54:36;;;;;;;10.15;1.73;;;18.30;99.90;;;;;;5016061;28;20408;-71
2022/06/13 11:57:36;;;;;;;6.80;1.63;;;18.40;99.90;;;;;;4982873;28;20046;-71
2022/06/13 12:00:18;;;;;;;8.82;1.92;;;18.60;99.90;;;;;;5014261;28;20049;-73
2022/06/13 12:02:50;;;;;;;6.28;2.03;;;18.70;99.90;;;;;;5031340;28;20050;-73
2022/06/13 12:05:34;;;;;;;5.82;1.75;;;18.80;99.90;;;;;;5019935;28;20050;-72
2022/06/13 12:08:24;;;;;;;7.30;2.13;;;18.90;99.90;;;;;;4996696;28;20054;-72
2022/06/13 12:10:56;;;;;;;6.43;1.30;;;19.10;99.90;;;;;;4983980;28;20056;-72
2022/06/13 12:13:22;;;;;;;8.20;2.03;;;19.40;99.90;;;;;;5023168;28;20562;-72
2022/06/13 12:16:25;;;;;;;8.70;1.40;;;19.70;99.90;;;;;;5015745;28;20050;-71
2022/06/13 12:19:00;;;;;;;7.70;1.60;;;20.00;99.90;;;;;;5018278;28;20062;-72
2022/06/13 12:21:32;;;;;;;7.05;1.55;;;20.20;99.90;;;;;;4989146;28;20049;-71
2022/06/13 12:24:24;;;;;;;6.43;1.60;;;20.30;99.90;;;;;;5016209;28;20097;-71
2022/06/13 12:27:05;;;;;;;9.25;2.08;;;20.60;99.90;;;;;;5033991;28;20401;-71
2022/06/13 12:29:42;;;;;;;6.85;1.42;;;20.80;99.90;;;;;;5001295;28;20054;-72
2022/06/13 12:32:19;;;;;;;7.50;1.70;;;20.70;99.90;;;;;;5027503;28;20045;-71
2022/06/13 12:34:54;;;;;;;9.38;1.52;;;20.80;99.90;;;;;;4983656;28;20069;-72
2022/06/13 12:37:32;;;;;;;6.85;1.40;;;21.00;99.90;;;;;;5030700;28;20050;-72
2022/06/13 12:40:40;;;;;;;5.53;1.10;;;21.20;99.90;;;;;;5002631;28;20069;-71
2022/06/13 12:43:28;;;;;;;9.15;1.48;;;21.00;94.50;;;;;;5032304;28;20050;-72
2022/06/13 12:45:57;;;;;;;7.57;1.45;;;20.40;97.00;;;;;;5032518;28;20038;-71
2022/06/13 12:48:46;;;;;;;7.28;1.42;;;20.00;98.60;;;;;;4996804;28;20049;-71
2022/06/13 12:51:19;;;;;;;8.65;2.00;;;19.70;99.40;;;;;;5012976;28;20050;-72
2022/06/13 12:53:55;;;;;;;6.38;1.33;;;19.30;99.90;;;;;;5030193;28;20037;-71
2022/06/13 12:56:46;;;;;;;8.80;1.90;;;19.10;99.90;;;;;;5001065;28;20092;-71
2022/06/13 12:59:33;;;;;;;6.20;1.45;;;19.00;99.20;;;;;;5019838;28;20041;-72
2022/06/13 13:02:34;;;;;;;7.15;1.50;;;19.20;99.90;;;;;;5015406;28;20061;-71
2022/06/13 13:05:45;;;;;;;12.38;1.55;;;19.40;99.90;;;;;;5004148;28;20052;-71
2022/06/13 13:08:45;;;;;;;8.25;1.63;;;19.50;99.20;;;;;;4990867;28;20633;-70
2022/06/13 13:11:28;;;;;;;8.18;1.42;;;19.40;97.80;;;;;;5000009;28;20539;-71
2022/06/13 13:14:39;;;;;;;7.40;1.95;;;19.20;99.90;;;;;;5001011;28;20203;-73
2022/06/13 13:17:29;;;;;;;6.28;1.75;;;19.20;98.80;;;;;;4977593;28;20627;-73
2022/06/13 13:20:01;;;;;;;6.00;1.45;;;19.10;99.90;;;;;;4988822;28;20469;-72
2022/06/13 13:23:00;;;;;;;8.93;1.70;;;19.20;99.90;;;;;;5015498;28;20054;-71
2022/06/13 13:25:37;;;;;;;11.00;1.73;;;19.20;99.60;;;;;;5000328;28;20050;-72
2022/06/13 13:28:22;;;;;;;6.55;1.30;;;19.10;97.80;;;;;;5034372;28;20144;-71
2022/06/13 13:30:58;;;;;;;6.75;1.30;;;18.90;99.90;;;;;;5031570;28;20053;-71
2022/06/13 13:33:58;;;;;;;5.68;1.17;;;18.70;99.90;;;;;;5039272;28;20521;-70
2022/06/13 13:36:46;;;;;;;7.40;1.55;;;18.70;99.90;;;;;;5042933;28;20125;-71
2022/06/13 13:39:37;;;;;;;8.15;1.42;;;18.80;99.90;;;;;;5038570;28;20058;-71
2022/06/13 13:42:14;;;;;;;7.85;1.40;;;18.80;99.90;;;;;;4989790;28;20612;-71
2022/06/13 13:45:01;;;;;;;8.30;1.45;;;18.70;99.90;;;;;;5002663;28;20497;-71
2022/06/13 13:47:31;;;;;;;6.43;1.20;;;18.70;99.90;;;;;;4996850;28;20401;-71